sensor_id;sensor_type;location;lat;lon;timestamp;pressure;altitude;pressure_sealevel;temperature;humidity
7662;BME280;30314;48.184;11.510;2023-04-01T00:01:13;94733.53;;;7.22;100.00
7662;BME280;30314;48.184;11.510;2023-04-01T00:03:40;94733.34;;;7.18;100.00
7662;BME280;30314;48.184;11.510;2023-04-01T00:06:07;94719.72;;;7.16;100.00
7662;BME280;30314;48.184;11.510;2023-04-01T00:08:34;94723.44;;;7.15;100.00
7662;BME280;30314;48.184;11.510;2023-04-01T00:11:00;94708.84;;;7.09;100.00
7662;BME280;30314;48.184;11.510;2023-04-01T00:13:27;94720.31;;;7.13;100.00
7662;BME280;30314;48.184;11.510;2023-04-01T00:15:55;94698.91;;;7.05;100.00
7662;BME280;30314;48.184;11.510;2023-04-01T00:18:23;94699.00;;;7.00;100.00
7662;BME280;30314;48.184;11.510;2023-04-01T00:20:50;94684.31;;;6.85;100.00
7662;BME280;30314;48.184;11.510;2023-04-01T00:23:18;94706.41;;;7.12;100.00
7662;BME280;30314;48.184;11.510;2023-04-01T00:25:45;94700.56;;;7.01;100.00
7662;BME280;30314;48.184;11.510;2023-04-01T00:28:16;94701.06;;;7.03;100.00
7662;BME280;30314;48.184;11.510;2023-04-01T00:30:43;94701.16;;;6.98;100.00
7662;BME280;30314;48.184;11.510;2023-04-01T00:33:09;94705.81;;;7.01;100.00
7662;BME280;30314;48.184;11.510;2023-04-01T00:35:37;94699.59;;;6.97;100.00
7662;BME280;30314;48.184;11.510;2023-04-01T00:38:03;94702.03;;;6.94;100.00
7662;BME280;30314;48.184;11.510;2023-04-01T00:40:36;94705.22;;;6.90;100.00
7662;BME280;30314;48.184;11.510;2023-04-01T00:43:05;94706.47;;;6.93;100.00
7662;BME280;30314;48.184;11.510;2023-04-01T00:45:42;94703.00;;;6.84;100.00
7662;BME280;30314;48.184;11.510;2023-04-01T00:50:43;94707.28;;;6.94;100.00
7662;BME280;30314;48.184;11.510;2023-04-01T00:53:11;94696.66;;;6.85;100.00
7662;BME280;30314;48.184;11.510;2023-04-01T00:55:42;94705.13;;;6.82;100.00
7662;BME280;30314;48.184;11.510;2023-04-01T00:58:15;94704.94;;;6.92;100.00
7662;BME280;30314;48.184;11.510;2023-04-01T01:00:44;94685.09;;;6.86;100.00
7662;BME280;30314;48.184;11.510;2023-04-01T01:03:12;94677.03;;;6.82;100.00
7662;BME280;30314;48.184;11.510;2023-04-01T01:06:08;94695.88;;;6.84;100.00
7662;BME280;30314;48.184;11.510;2023-04-01T01:09:05;94701.06;;;7.03;100.00
7662;BME280;30314;48.184;11.510;2023-04-01T01:11:54;94704.38;;;6.95;100.00
7662;BME280;30314;48.184;11.510;2023-04-01T01:14:49;94700.94;;;6.95;100.00
7662;BME280;30314;48.184;11.510;2023-04-01T01:17:27;94702.44;;;7.01;100.00
7662;BME280;30314;48.184;11.510;2023-04-01T01:20:22;94708.72;;;7.00;100.00
7662;BME280;30314;48.184;11.510;2023-04-01T01:25:57;94693.75;;;6.86;100.00
7662;BME280;30314;48.184;11.510;2023-04-01T01:31:44;94697.16;;;6.87;100.00
7662;BME280;30314;48.184;11.510;2023-04-01T01:36:50;94689.75;;;6.89;100.00
7662;BME280;30314;48.184;11.510;2023-04-01T01:39:20;94693.97;;;6.71;100.00
7662;BME280;30314;48.184;11.510;2023-04-01T01:41:53;94695.13;;;6.84;100.00
7662;BME280;30314;48.184;11.510;2023-04-01T01:44:22;94680.25;;;6.79;100.00
7662;BME280;30314;48.184;11.510;2023-04-01T01:46:49;94696.56;;;6.90;100.00
7662;BME280;30314;48.184;11.510;2023-04-01T01:49:18;94676.25;;;6.82;100.00
7662;BME280;30314;48.184;11.510;2023-04-01T01:51:45;94688.22;;;6.88;100.00
7662;BME280;30314;48.184;11.510;2023-04-01T01:54:14;94675.56;;;6.76;100.00
7662;BME280;30314;48.184;11.510;2023-04-01T01:56:44;94685.09;;;6.86;100.00
7662;BME280;30314;48.184;11.510;2023-04-01T01:59:12;94694.44;;;6.78;100.00
7662;BME280;30314;48.184;11.510;2023-04-01T02:01:42;94672.75;;;6.72;100.00
7662;BME280;30314;48.184;11.510;2023-04-01T02:04:13;94689.94;;;6.79;100.00
7662;BME280;30314;48.184;11.510;2023-04-01T02:06:50;94703.38;;;6.91;100.00
7662;BME280;30314;48.184;11.510;2023-04-01T02:09:20;94680.34;;;6.88;100.00
7662;BME280;30314;48.184;11.510;2023-04-01T02:12:00;94687.81;;;6.81;100.00
7662;BME280;30314;48.184;11.510;2023-04-01T02:14:57;94692.00;;;6.96;100.00
7662;BME280;30314;48.184;11.510;2023-04-01T02:17:30;94694.53;;;6.87;100.00
7662;BME280;30314;48.184;11.510;2023-04-01T02:20:02;94692.81;;;6.96;100.00
7662;BME280;30314;48.184;11.510;2023-04-01T02:22:37;94688.59;;;6.81;100.00
7662;BME280;30314;48.184;11.510;2023-04-01T02:25:12;94700.47;;;6.93;100.00
7662;BME280;30314;48.184;11.510;2023-04-01T02:27:41;94701.22;;;6.93;100.00
7662;BME280;30314;48.184;11.510;2023-04-01T02:30:10;94704.16;;;6.92;100.00
7662;BME280;30314;48.184;11.510;2023-04-01T02:32:38;94704.38;;;6.95;100.00
7662;BME280;30314;48.184;11.510;2023-04-01T02:35:07;94705.13;;;6.96;100.00
7662;BME280;30314;48.184;11.510;2023-04-01T02:37:36;94704.34;;;6.81;100.00
7662;BME280;30314;48.184;11.510;2023-04-01T02:40:06;94703.97;;;6.88;100.00
7662;BME280;30314;48.184;11.510;2023-04-01T02:42:34;94706.00;;;6.91;100.00
7662;BME280;30314;48.184;11.510;2023-04-01T02:45:01;94719.72;;;6.88;100.00
7662;BME280;30314;48.184;11.510;2023-04-01T02:47:27;94710.09;;;6.97;100.00
7662;BME280;30314;48.184;11.510;2023-04-01T02:49:55;94698.91;;;6.92;100.00
7662;BME280;30314;48.184;11.510;2023-04-01T02:52:25;94712.13;;;6.86;100.00
7662;BME280;30314;48.184;11.510;2023-04-01T02:54:52;94705.63;;;6.84;100.00
7662;BME280;30314;48.184;11.510;2023-04-01T02:57:19;94711.13;;;6.82;100.00
7662;BME280;30314;48.184;11.510;2023-04-01T02:59:46;94709.38;;;6.77;100.00
7662;BME280;30314;48.184;11.510;2023-04-01T03:02:14;94726.44;;;6.94;100.00
7662;BME280;30314;48.184;11.510;2023-04-01T03:04:40;94719.53;;;6.98;100.00
7662;BME280;30314;48.184;11.510;2023-04-01T03:07:08;94730.91;;;6.94;100.00
7662;BME280;30314;48.184;11.510;2023-04-01T03:09:37;94722.16;;;6.98;100.00
7662;BME280;30314;48.184;11.510;2023-04-01T03:12:05;94735.28;;;6.98;100.00
7662;BME280;30314;48.184;11.510;2023-04-01T03:14:40;94716.59;;;6.86;100.00
7662;BME280;30314;48.184;11.510;2023-04-01T03:17:06;94722.44;;;6.83;100.00
7662;BME280;30314;48.184;11.510;2023-04-01T03:19:33;94726.13;;;6.82;100.00
7662;BME280;30314;48.184;11.510;2023-04-01T03:22:04;94702.09;;;6.74;100.00
7662;BME280;30314;48.184;11.510;2023-04-01T03:24:31;94705.00;;;6.73;100.00
7662;BME280;30314;48.184;11.510;2023-04-01T03:26:58;94723.16;;;6.69;100.00
7662;BME280;30314;48.184;11.510;2023-04-01T03:29:24;94718.63;;;6.75;100.00
7662;BME280;30314;48.184;11.510;2023-04-01T03:31:51;94715.94;;;6.61;100.00
7662;BME280;30314;48.184;11.510;2023-04-01T03:34:18;94722.91;;;6.52;100.00
7662;BME280;30314;48.184;11.510;2023-04-01T03:36:44;94740.13;;;6.58;100.00
7662;BME280;30314;48.184;11.510;2023-04-01T03:39:11;94737.50;;;6.58;100.00
7662;BME280;30314;48.184;11.510;2023-04-01T03:41:40;94735.53;;;6.49;100.00
7662;BME280;30314;48.184;11.510;2023-04-01T03:44:06;94733.00;;;6.58;100.00
7662;BME280;30314;48.184;11.510;2023-04-01T03:46:33;94736.47;;;6.40;100.00
7662;BME280;30314;48.184;11.510;2023-04-01T03:49:00;94728.38;;;6.36;100.00
7662;BME280;30314;48.184;11.510;2023-04-01T03:51:26;94744.81;;;6.42;100.00
7662;BME280;30314;48.184;11.510;2023-04-01T03:53:54;94748.16;;;6.47;100.00
7662;BME280;30314;48.184;11.510;2023-04-01T03:56:20;94743.19;;;6.46;100.00
7662;BME280;30314;48.184;11.510;2023-04-01T03:58:49;94735.41;;;6.41;100.00
7662;BME280;30314;48.184;11.510;2023-04-01T04:01:19;94744.06;;;6.41;100.00
7662;BME280;30314;48.184;11.510;2023-04-01T04:03:53;94753.75;;;6.41;100.00
7662;BME280;30314;48.184;11.510;2023-04-01T04:06:21;94739.94;;;6.35;100.00
7662;BME280;30314;48.184;11.510;2023-04-01T04:08:49;94753.91;;;6.30;100.00
7662;BME280;30314;48.184;11.510;2023-04-01T04:11:16;94756.25;;;6.32;100.00
7662;BME280;30314;48.184;11.510;2023-04-01T04:13:43;94751.06;;;6.27;100.00
7662;BME280;30314;48.184;11.510;2023-04-01T04:16:11;94750.66;;;6.39;100.00
7662;BME280;30314;48.184;11.510;2023-04-01T04:18:42;94748.28;;;6.37;100.00
7662;BME280;30314;48.184;11.510;2023-04-01T04:21:14;94755.03;;;6.43;100.00
7662;BME280;30314;48.184;11.510;2023-04-01T04:23:42;94754.47;;;6.46;100.00
7662;BME280;30314;48.184;11.510;2023-04-01T04:26:12;94722.59;;;6.20;100.00
7662;BME280;30314;48.184;11.510;2023-04-01T04:28:39;94748.63;;;6.49;100.00
7662;BME280;30314;48.184;11.510;2023-04-01T04:31:06;94745.19;;;6.35;100.00
7662;BME280;30314;48.184;11.510;2023-04-01T04:33:35;94745.53;;;6.47;100.00
7662;BME280;30314;48.184;11.510;2023-04-01T04:36:03;94756.59;;;6.44;100.00
7662;BME280;30314;48.184;11.510;2023-04-01T04:38:30;94753.97;;;6.44;100.00
7662;BME280;30314;48.184;11.510;2023-04-01T04:40:58;94752.81;;;6.51;100.00
7662;BME280;30314;48.184;11.510;2023-04-01T04:43:24;94763.78;;;6.53;100.00
7662;BME280;30314;48.184;11.510;2023-04-01T04:45:52;94749.56;;;6.40;100.00
7662;BME280;30314;48.184;11.510;2023-04-01T04:48:18;94769.38;;;6.65;100.00
7662;BME280;30314;48.184;11.510;2023-04-01T04:50:48;94771.66;;;6.72;100.00
7662;BME280;30314;48.184;11.510;2023-04-01T04:53:18;94769.88;;;6.67;100.00
7662;BME280;30314;48.184;11.510;2023-04-01T04:55:49;94769.81;;;6.72;100.00
7662;BME280;30314;48.184;11.510;2023-04-01T04:58:25;94776.19;;;6.66;100.00
7662;BME280;30314;48.184;11.510;2023-04-01T05:00:53;94766.75;;;6.65;100.00
7662;BME280;30314;48.184;11.510;2023-04-01T05:03:25;94763.06;;;6.66;100.00
7662;BME280;30314;48.184;11.510;2023-04-01T05:05:54;94773.44;;;6.76;100.00
7662;BME280;30314;48.184;11.510;2023-04-01T05:08:20;94782.22;;;6.86;100.00
7662;BME280;30314;48.184;11.510;2023-04-01T05:10:47;94776.47;;;6.84;100.00
7662;BME280;30314;48.184;11.510;2023-04-01T05:13:14;94753.91;;;6.83;100.00
7662;BME280;30314;48.184;11.510;2023-04-01T05:15:44;94774.91;;;6.83;100.00
7662;BME280;30314;48.184;11.510;2023-04-01T05:18:11;94751.31;;;6.83;100.00
7662;BME280;30314;48.184;11.510;2023-04-01T05:20:37;94757.94;;;6.94;100.00
7662;BME280;30314;48.184;11.510;2023-04-01T05:23:04;94763.09;;;6.99;100.00
7662;BME280;30314;48.184;11.510;2023-04-01T05:25:30;94763.19;;;6.94;100.00
7662;BME280;30314;48.184;11.510;2023-04-01T05:27:58;94765.44;;;7.01;100.00
7662;BME280;30314;48.184;11.510;2023-04-01T05:30:24;94761.03;;;6.96;100.00
7662;BME280;30314;48.184;11.510;2023-04-01T05:33:00;94750.66;;;7.05;100.00
7662;BME280;30314;48.184;11.510;2023-04-01T05:35:27;94775.56;;;7.08;100.00
7662;BME280;30314;48.184;11.510;2023-04-01T05:37:54;94751.63;;;7.09;100.00
7662;BME280;30314;48.184;11.510;2023-04-01T05:40:20;94755.50;;;6.98;100.00
7662;BME280;30314;48.184;11.510;2023-04-01T05:42:47;94761.06;;;7.10;100.00
7662;BME280;30314;48.184;11.510;2023-04-01T05:45:14;94751.03;;;7.12;100.00
7662;BME280;30314;48.184;11.510;2023-04-01T05:48:01;94753.47;;;7.09;100.00
7662;BME280;30314;48.184;11.510;2023-04-01T05:50:35;94752.41;;;7.10;100.00
7662;BME280;30314;48.184;11.510;2023-04-01T05:53:02;94760.47;;;7.13;100.00
7662;BME280;30314;48.184;11.510;2023-04-01T05:55:29;94770.78;;;7.10;100.00
7662;BME280;30314;48.184;11.510;2023-04-01T05:57:56;94751.81;;;7.13;100.00
7662;BME280;30314;48.184;11.510;2023-04-01T06:00:23;94761.75;;;7.16;100.00
7662;BME280;30314;48.184;11.510;2023-04-01T06:02:50;94748.72;;;7.11;100.00
7662;BME280;30314;48.184;11.510;2023-04-01T06:05:21;94752.31;;;7.15;100.00
7662;BME280;30314;48.184;11.510;2023-04-01T06:07:51;94762.72;;;7.20;100.00
7662;BME280;30314;48.184;11.510;2023-04-01T06:10:23;94762.91;;;7.24;100.00
7662;BME280;30314;48.184;11.510;2023-04-01T06:13:07;94771.38;;;7.21;100.00
7662;BME280;30314;48.184;11.510;2023-04-01T06:15:53;94765.44;;;7.15;100.00
7662;BME280;30314;48.184;11.510;2023-04-01T06:21:26;94763.78;;;7.19;100.00
7662;BME280;30314;48.184;11.510;2023-04-01T06:24:33;94763.31;;;7.31;100.00
7662;BME280;30314;48.184;11.510;2023-04-01T06:29:50;94763.63;;;7.43;100.00
7662;BME280;30314;48.184;11.510;2023-04-01T06:32:25;94751.56;;;7.42;100.00
7662;BME280;30314;48.184;11.510;2023-04-01T06:35:17;94757.50;;;7.48;100.00
7662;BME280;30314;48.184;11.510;2023-04-01T06:43:28;94772.47;;;7.61;100.00
7662;BME280;30314;48.184;11.510;2023-04-01T06:46:29;94769.34;;;7.59;100.00
7662;BME280;30314;48.184;11.510;2023-04-01T06:52:53;94764.16;;;7.82;100.00
7662;BME280;30314;48.184;11.510;2023-04-01T06:55:47;94765.59;;;8.02;100.00
7662;BME280;30314;48.184;11.510;2023-04-01T06:58:30;94783.25;;;8.25;98.91
7662;BME280;30314;48.184;11.510;2023-04-01T07:01:03;94782.63;;;8.42;99.19
7662;BME280;30314;48.184;11.510;2023-04-01T07:03:34;94754.72;;;8.32;96.29
7662;BME280;30314;48.184;11.510;2023-04-01T07:06:09;94775.41;;;8.48;96.84
7662;BME280;30314;48.184;11.510;2023-04-01T07:08:46;94782.22;;;8.49;94.02
7662;BME280;30314;48.184;11.510;2023-04-01T07:11:24;94782.47;;;8.61;98.59
7662;BME280;30314;48.184;11.510;2023-04-01T07:16:55;94773.47;;;8.39;93.97
7662;BME280;30314;48.184;11.510;2023-04-01T07:19:49;94793.69;;;8.53;96.07
7662;BME280;30314;48.184;11.510;2023-04-01T07:22:33;94765.72;;;9.43;89.31
7662;BME280;30314;48.184;11.510;2023-04-01T07:25:35;94774.25;;;9.98;88.18
7662;BME280;30314;48.184;11.510;2023-04-01T07:28:21;94769.03;;;10.33;84.79
7662;BME280;30314;48.184;11.510;2023-04-01T07:31:44;94778.66;;;10.20;81.74
7662;BME280;30314;48.184;11.510;2023-04-01T07:36:49;94777.19;;;9.88;87.57
7662;BME280;30314;48.184;11.510;2023-04-01T07:39:27;94784.31;;;9.78;80.96
7662;BME280;30314;48.184;11.510;2023-04-01T07:45:07;94778.44;;;9.90;89.43
7662;BME280;30314;48.184;11.510;2023-04-01T07:47:45;94785.22;;;9.73;85.96
7662;BME280;30314;48.184;11.510;2023-04-01T07:50:28;94791.41;;;9.69;89.93
7662;BME280;30314;48.184;11.510;2023-04-01T07:55:46;94795.69;;;9.47;88.88
7662;BME280;30314;48.184;11.510;2023-04-01T07:58:47;94787.22;;;9.27;92.69
7662;BME280;30314;48.184;11.510;2023-04-01T08:06:56;94798.84;;;9.26;85.40
7662;BME280;30314;48.184;11.510;2023-04-01T08:12:48;94792.66;;;9.31;83.64
7662;BME280;30314;48.184;11.510;2023-04-01T08:18:54;94787.56;;;9.35;85.28
7662;BME280;30314;48.184;11.510;2023-04-01T08:21:42;94774.09;;;9.45;89.42
7662;BME280;30314;48.184;11.510;2023-04-01T08:24:41;94796.28;;;9.44;87.31
7662;BME280;30314;48.184;11.510;2023-04-01T08:29:59;94783.84;;;9.36;86.21
7662;BME280;30314;48.184;11.510;2023-04-01T08:32:36;94769.56;;;9.68;81.17
7662;BME280;30314;48.184;11.510;2023-04-01T08:35:27;94784.81;;;9.98;83.77
7662;BME280;30314;48.184;11.510;2023-04-01T08:38:06;94782.50;;;10.05;75.35
7662;BME280;30314;48.184;11.510;2023-04-01T08:46:38;94771.94;;;10.14;78.32
7662;BME280;30314;48.184;11.510;2023-04-01T08:49:17;94776.94;;;10.07;81.78
7662;BME280;30314;48.184;11.510;2023-04-01T08:59:04;94786.69;;;10.06;81.81
7662;BME280;30314;48.184;11.510;2023-04-01T09:07:27;94773.78;;;9.87;79.81
7662;BME280;30314;48.184;11.510;2023-04-01T09:13:04;94763.69;;;9.98;80.49
7662;BME280;30314;48.184;11.510;2023-04-01T09:30:19;94755.97;;;10.37;72.69
7662;BME280;30314;48.184;11.510;2023-04-01T09:36:45;94749.94;;;10.54;74.45
7662;BME280;30314;48.184;11.510;2023-04-01T09:39:37;94755.03;;;10.59;76.96
7662;BME280;30314;48.184;11.510;2023-04-01T09:42:42;94756.44;;;10.65;77.07
7662;BME280;30314;48.184;11.510;2023-04-01T09:48:21;94739.13;;;10.94;72.23
7662;BME280;30314;48.184;11.510;2023-04-01T09:51:04;94727.31;;;11.00;71.57
7662;BME280;30314;48.184;11.510;2023-04-01T09:59:42;94731.50;;;11.02;70.77
7662;BME280;30314;48.184;11.510;2023-04-01T10:02:45;94731.19;;;11.12;69.24
7662;BME280;30314;48.184;11.510;2023-04-01T10:08:35;94738.00;;;11.13;71.25
7662;BME280;30314;48.184;11.510;2023-04-01T10:11:33;94728.13;;;10.83;72.33
7662;BME280;30314;48.184;11.510;2023-04-01T10:17:19;94723.41;;;11.07;75.05
7662;BME280;30314;48.184;11.510;2023-04-01T10:22:48;94733.91;;;11.33;70.46
7662;BME280;30314;48.184;11.510;2023-04-01T10:29:01;94730.00;;;11.31;72.65
7662;BME280;30314;48.184;11.510;2023-04-01T10:31:51;94733.06;;;11.50;69.23
7662;BME280;30314;48.184;11.510;2023-04-01T10:34:41;94739.06;;;11.60;72.47
7662;BME280;30314;48.184;11.510;2023-04-01T10:55:14;94748.63;;;10.78;72.07
7662;BME280;30314;48.184;11.510;2023-04-01T10:58:45;94754.13;;;10.55;77.18
7662;BME280;30314;48.184;11.510;2023-04-01T11:18:06;94770.69;;;10.03;95.85
7662;BME280;30314;48.184;11.510;2023-04-01T11:21:12;94761.22;;;10.10;92.12
7662;BME280;30314;48.184;11.510;2023-04-01T11:32:52;94754.91;;;10.29;99.79
7662;BME280;30314;48.184;11.510;2023-04-01T11:38:14;94785.94;;;10.06;98.15
7662;BME280;30314;48.184;11.510;2023-04-01T11:40:56;94790.53;;;9.91;100.00
7662;BME280;30314;48.184;11.510;2023-04-01T11:44:09;94797.28;;;9.66;100.00
7662;BME280;30314;48.184;11.510;2023-04-01T11:53:02;94803.25;;;9.17;100.00
7662;BME280;30314;48.184;11.510;2023-04-01T11:55:40;94795.41;;;8.71;100.00
7662;BME280;30314;48.184;11.510;2023-04-01T11:58:36;94793.41;;;8.54;100.00
7662;BME280;30314;48.184;11.510;2023-04-01T12:01:20;94797.78;;;8.59;100.00
7662;BME280;30314;48.184;11.510;2023-04-01T12:07:12;94797.84;;;8.68;100.00
7662;BME280;30314;48.184;11.510;2023-04-01T12:10:01;94795.03;;;8.64;100.00
7662;BME280;30314;48.184;11.510;2023-04-01T12:12:38;94795.16;;;8.59;100.00
7662;BME280;30314;48.184;11.510;2023-04-01T12:21:25;94784.25;;;8.29;100.00
7662;BME280;30314;48.184;11.510;2023-04-01T12:24:34;94774.06;;;8.36;100.00
7662;BME280;30314;48.184;11.510;2023-04-01T12:30:10;94768.16;;;8.30;100.00
7662;BME280;30314;48.184;11.510;2023-04-01T12:33:03;94778.72;;;8.39;100.00
7662;BME280;30314;48.184;11.510;2023-04-01T12:38:48;94773.94;;;8.18;100.00
7662;BME280;30314;48.184;11.510;2023-04-01T12:41:53;94801.38;;;8.26;100.00
7662;BME280;30314;48.184;11.510;2023-04-01T12:44:42;94794.16;;;8.32;100.00
7662;BME280;30314;48.184;11.510;2023-04-01T12:47:40;94776.09;;;8.16;100.00
7662;BME280;30314;48.184;11.510;2023-04-01T12:50:26;94787.41;;;8.03;100.00
7662;BME280;30314;48.184;11.510;2023-04-01T12:53:04;94792.47;;;8.13;100.00
7662;BME280;30314;48.184;11.510;2023-04-01T12:55:41;94786.63;;;8.16;100.00
7662;BME280;30314;48.184;11.510;2023-04-01T13:04:03;94780.59;;;8.02;100.00
7662;BME280;30314;48.184;11.510;2023-04-01T13:10:13;94799.16;;;8.20;100.00
7662;BME280;30314;48.184;11.510;2023-04-01T13:12:39;94809.00;;;8.28;100.00
7662;BME280;30314;48.184;11.510;2023-04-01T13:18:17;94798.47;;;8.28;100.00
7662;BME280;30314;48.184;11.510;2023-04-01T13:21:18;94795.50;;;8.07;100.00
7662;BME280;30314;48.184;11.510;2023-04-01T13:26:52;94805.63;;;8.13;100.00
7662;BME280;30314;48.184;11.510;2023-04-01T13:29:24;94824.00;;;8.27;100.00
7662;BME280;30314;48.184;11.510;2023-04-01T13:32:06;94816.88;;;8.28;100.00
7662;BME280;30314;48.184;11.510;2023-04-01T13:43:41;94825.25;;;8.30;100.00
7662;BME280;30314;48.184;11.510;2023-04-01T13:49:02;94815.69;;;8.34;100.00
7662;BME280;30314;48.184;11.510;2023-04-01T14:00:13;94822.28;;;8.45;100.00
7662;BME280;30314;48.184;11.510;2023-04-01T14:11:10;94817.03;;;8.45;100.00
7662;BME280;30314;48.184;11.510;2023-04-01T14:19:51;94798.84;;;8.35;100.00
7662;BME280;30314;48.184;11.510;2023-04-01T14:22:46;94816.13;;;8.50;100.00
7662;BME280;30314;48.184;11.510;2023-04-01T14:31:23;94795.44;;;8.57;100.00
7662;BME280;30314;48.184;11.510;2023-04-01T14:34:21;94819.72;;;8.54;100.00
7662;BME280;30314;48.184;11.510;2023-04-01T14:39:38;94800.22;;;8.55;100.00
7662;BME280;30314;48.184;11.510;2023-04-01T14:48:13;94813.13;;;8.80;100.00
7662;BME280;30314;48.184;11.510;2023-04-01T14:50:49;94823.03;;;8.83;100.00
7662;BME280;30314;48.184;11.510;2023-04-01T14:55:53;94789.88;;;8.59;100.00
7662;BME280;30314;48.184;11.510;2023-04-01T14:58:21;94822.66;;;8.76;100.00
7662;BME280;30314;48.184;11.510;2023-04-01T15:03:58;94821.06;;;8.88;100.00
7662;BME280;30314;48.184;11.510;2023-04-01T15:12:41;94830.69;;;8.70;100.00
7662;BME280;30314;48.184;11.510;2023-04-01T15:15:21;94828.16;;;8.65;100.00
7662;BME280;30314;48.184;11.510;2023-04-01T15:18:14;94816.06;;;8.64;100.00
7662;BME280;30314;48.184;11.510;2023-04-01T15:21:24;94826.97;;;8.71;100.00
7662;BME280;30314;48.184;11.510;2023-04-01T15:37:46;94840.84;;;8.63;100.00
7662;BME280;30314;48.184;11.510;2023-04-01T15:43:13;94851.75;;;8.70;100.00
7662;BME280;30314;48.184;11.510;2023-04-01T15:45:58;94856.63;;;8.63;100.00
7662;BME280;30314;48.184;11.510;2023-04-01T15:48:44;94854.72;;;8.55;100.00
7662;BME280;30314;48.184;11.510;2023-04-01T15:51:41;94861.81;;;8.68;100.00
7662;BME280;30314;48.184;11.510;2023-04-01T15:57:28;94839.66;;;8.69;100.00
7662;BME280;30314;48.184;11.510;2023-04-01T16:11:14;94859.78;;;8.88;100.00
7662;BME280;30314;48.184;11.510;2023-04-01T16:20:14;94862.47;;;8.97;100.00
7662;BME280;30314;48.184;11.510;2023-04-01T16:23:08;94851.78;;;8.93;100.00
7662;BME280;30314;48.184;11.510;2023-04-01T16:25:40;94848.75;;;8.86;100.00
7662;BME280;30314;48.184;11.510;2023-04-01T16:28:18;94854.91;;;8.81;100.00
7662;BME280;30314;48.184;11.510;2023-04-01T16:31:07;94847.91;;;8.77;100.00
7662;BME280;30314;48.184;11.510;2023-04-01T16:36:37;94847.09;;;8.67;100.00
7662;BME280;30314;48.184;11.510;2023-04-01T16:39:19;94860.13;;;8.72;100.00
7662;BME280;30314;48.184;11.510;2023-04-01T16:42:08;94819.53;;;8.51;100.00
7662;BME280;30314;48.184;11.510;2023-04-01T16:44:52;94858.09;;;8.69;100.00
7662;BME280;30314;48.184;11.510;2023-04-01T16:47:29;94860.91;;;8.73;100.00
7662;BME280;30314;48.184;11.510;2023-04-01T16:53:00;94867.47;;;8.84;100.00
7662;BME280;30314;48.184;11.510;2023-04-01T16:55:43;94870.25;;;8.79;100.00
7662;BME280;30314;48.184;11.510;2023-04-01T16:58:19;94870.84;;;8.76;100.00
7662;BME280;30314;48.184;11.510;2023-04-01T17:01:16;94862.56;;;8.69;100.00
7662;BME280;30314;48.184;11.510;2023-04-01T17:03:45;94876.72;;;8.59;100.00
7662;BME280;30314;48.184;11.510;2023-04-01T17:06:39;94865.31;;;8.64;98.75
7662;BME280;30314;48.184;11.510;2023-04-01T17:09:29;94870.69;;;8.58;98.21
7662;BME280;30314;48.184;11.510;2023-04-01T17:15:03;94877.91;;;8.53;99.36
7662;BME280;30314;48.184;11.510;2023-04-01T17:20:48;94885.31;;;8.51;94.75
7662;BME280;30314;48.184;11.510;2023-04-01T17:23:50;94880.38;;;8.49;99.01
7662;BME280;30314;48.184;11.510;2023-04-01T17:26:42;94871.59;;;8.40;95.49
7662;BME280;30314;48.184;11.510;2023-04-01T17:29:23;94885.16;;;8.47;96.13
7662;BME280;30314;48.184;11.510;2023-04-01T17:35:13;94882.59;;;8.56;95.82
7662;BME280;30314;48.184;11.510;2023-04-01T17:43:25;94894.38;;;8.58;97.95
7662;BME280;30314;48.184;11.510;2023-04-01T17:46:02;94900.53;;;8.54;96.69
7662;BME280;30314;48.184;11.510;2023-04-01T17:48:49;94900.03;;;8.52;97.75
7662;BME280;30314;48.184;11.510;2023-04-01T17:51:48;94905.22;;;8.43;97.56
7662;BME280;30314;48.184;11.510;2023-04-01T17:54:25;94912.75;;;8.36;99.29
7662;BME280;30314;48.184;11.510;2023-04-01T18:02:49;94903.75;;;8.51;95.18
7662;BME280;30314;48.184;11.510;2023-04-01T18:11:34;94914.47;;;8.54;93.94
7662;BME280;30314;48.184;11.510;2023-04-01T18:17:06;94914.94;;;8.56;94.54
7662;BME280;30314;48.184;11.510;2023-04-01T18:22:45;94933.56;;;8.46;95.70
7662;BME280;30314;48.184;11.510;2023-04-01T18:25:27;94924.09;;;8.59;93.12
7662;BME280;30314;48.184;11.510;2023-04-01T18:28:17;94922.94;;;8.51;96.38
7662;BME280;30314;48.184;11.510;2023-04-01T18:31:14;94938.34;;;8.58;96.87
7662;BME280;30314;48.184;11.510;2023-04-01T18:36:44;94939.78;;;8.64;98.26
7662;BME280;30314;48.184;11.510;2023-04-01T18:39:22;94947.31;;;8.57;99.67
7662;BME280;30314;48.184;11.510;2023-04-01T18:42:21;94935.81;;;8.53;98.80
7662;BME280;30314;48.184;11.510;2023-04-01T18:47:54;94949.19;;;8.42;99.27
7662;BME280;30314;48.184;11.510;2023-04-01T18:50:42;94950.75;;;8.43;97.03
7662;BME280;30314;48.184;11.510;2023-04-01T18:53:19;94947.63;;;8.41;98.99
7662;BME280;30314;48.184;11.510;2023-04-01T18:55:54;94953.97;;;8.40;100.00
7662;BME280;30314;48.184;11.510;2023-04-01T18:58:36;94962.53;;;8.32;100.00
7662;BME280;30314;48.184;11.510;2023-04-01T19:03:48;94965.16;;;8.32;100.00
7662;BME280;30314;48.184;11.510;2023-04-01T19:06:30;94960.28;;;8.11;100.00
7662;BME280;30314;48.184;11.510;2023-04-01T19:09:12;94972.66;;;8.25;100.00
7662;BME280;30314;48.184;11.510;2023-04-01T19:12:08;94957.66;;;8.25;100.00
7662;BME280;30314;48.184;11.510;2023-04-01T19:17:21;94964.97;;;8.14;100.00
7662;BME280;30314;48.184;11.510;2023-04-01T19:20:20;94970.03;;;8.25;100.00
7662;BME280;30314;48.184;11.510;2023-04-01T19:25:51;94978.19;;;8.09;100.00
7662;BME280;30314;48.184;11.510;2023-04-01T19:36:40;95011.84;;;7.93;100.00
7662;BME280;30314;48.184;11.510;2023-04-01T19:41:46;95006.25;;;8.00;100.00
7662;BME280;30314;48.184;11.510;2023-04-01T19:47:09;95003.81;;;8.03;100.00
7662;BME280;30314;48.184;11.510;2023-04-01T19:50:15;95017.41;;;7.92;100.00
7662;BME280;30314;48.184;11.510;2023-04-01T19:52:48;95009.50;;;7.78;100.00
7662;BME280;30314;48.184;11.510;2023-04-01T19:55:39;95013.41;;;7.80;100.00
7662;BME280;30314;48.184;11.510;2023-04-01T20:00:56;95022.84;;;7.81;100.00